• Join FlightAware (Why Join?)
  • Login
  • US Flag 
08:47PM EST


 

Airport Tracker/Info


-or-


 

Live Flight TrackerFlight Track Log ✈ DAL1430 ✈ 05-May-2013 ✈ KTPA - KCVG

Flight Track Log - Related Links

Times and Time Zones

All times are in EDT time to prevent confusion due to time zone crossing. See the DAL1430 flight status page for this flight to view local times or setup timezone preferences in your user account.

Time Position Orientation Groundspeed Altitude Reporting Facility
EDT Latitude Longitude Course Direction KTS MPH feet Rate Location/Type
05:22PM 28.0000 -82.5500 North 178 205 1,000  Level Tampa TRACON
05:24PM 28.1475 -82.5819 349° North 231 266 7,200 2,700 Climbing Jacksonville Center
05:25PM 28.3183 -82.7250 334° Northwest  Level FlightAware Approximate
05:25PM 28.2186 -82.6194 335° Northwest 259 298 10,300  Level Jacksonville Center
05:26PM 28.4361 -82.7833 North  Level FlightAware Approximate
05:26PM 28.3019 -82.6522 341° North 290 334 12,200  Level Jacksonville Center
05:27PM 28.5658 -82.8000 North  Level FlightAware Approximate
05:27PM 28.4044 -82.6825 345° North 336 387 13,800  Level Jacksonville Center
05:28PM 28.5150 -82.7153 345° North 381 438 16,200 2,280 Climbing Jacksonville Center
05:29PM 28.6256 -82.7483 345° North 401 461 18,400 2,160 Climbing Jacksonville Center
05:30PM 28.7447 -82.7836 345° North 419 482 20,600 2,040 Climbing Jacksonville Center
05:31PM 28.8636 -82.8214 344° North 430 495 22,500 1,800 Climbing Jacksonville Center
05:32PM 28.9847 -82.8594 345° North 444 511 24,200 1,560 Climbing Jacksonville Center
05:33PM 29.1100 -82.8972 345° North 456 525 25,700 1,380 Climbing Jacksonville Center
05:34PM 29.2394 -82.9378 345° North 456 525 27,000 1,560 Climbing Jacksonville Center
05:35PM 29.3667 -82.9783 344° North 461 531 28,900 1,620 Climbing Jacksonville Center
05:36PM 29.4961 -83.0167 346° North 466 536 30,300 1,320 Climbing Jacksonville Center
05:37PM 29.6131 -83.0575 343° North 476 548 31,600 1,260 Climbing Jacksonville Center
05:38PM 29.7319 -83.1128 338° Northwest 470 541 32,900 1,140 Climbing Jacksonville Center
05:39PM 29.8528 -83.1703 338° Northwest 465 535 33,900 480 Climbing Jacksonville Center
05:40PM 29.9697 -83.2258 338° Northwest 460 529 33,900  Level Jacksonville Center
05:41PM 30.0906 -83.2767 340° North 454 522 34,000  Climbing Jacksonville Center
05:42PM 30.2094 -83.3350 337° Northwest 454 522 33,900 -60 Descending Jacksonville Center
05:43PM 30.3281 -83.3908 342° North 454 522 33,900  Level Jacksonville Center
05:44PM 30.3433 -83.3850 342° North  Level FlightAware Approximate
05:44PM 30.4469 -83.4444 339° North 454 522 33,900  Level Jacksonville Center
05:45PM 30.5636 -83.4981 338° Northwest 454 522 33,900  Level Jacksonville Center
05:46PM 30.6825 -83.5569 337° Northwest 454 522 34,000  Climbing Jacksonville Center
05:47PM 30.8114 -83.6158 339° North 454 522 34,000  Level Jacksonville Center
05:48PM 30.9303 -83.6747 337° Northwest 454 522 34,000  Level Jacksonville Center
05:49PM 31.0489 -83.7292 339° North 454 522 34,000  Level Jacksonville Center
05:50PM 31.1675 -83.7886 337° Northwest 454 522 34,000  Level Jacksonville Center
05:51PM 31.2839 -83.8456 337° Northwest 454 522 34,000  Level Jacksonville Center
05:52PM 31.3900 -83.8953 338° Northwest 454 522 34,000  Level Jacksonville Center
05:55PM 31.6964 -84.0022 343° North 468 539 34,000  Level Atlanta Center
05:56PM 31.8281 -84.0292 350° North 474 545 34,000  Level Atlanta Center
05:57PM 31.9617 -84.0583 350° North 480 552 34,000  Level Atlanta Center
05:58PM 32.0953 -84.0878 349° North 485 558 34,000  Level Atlanta Center
05:59PM 32.2267 -84.1175 349° North 485 558 34,000  Level Atlanta Center
06:00PM 32.3622 -84.1469 350° North 485 558 34,000  Level Atlanta Center
06:02PM 32.6231 -84.2089 349° North 485 558 34,000  Level Atlanta Center
06:03PM 32.7547 -84.2389 349° North 485 558 34,000  Level Atlanta Center
06:04PM 32.8903 -84.2689 349° North 485 558 34,000  Level Atlanta Center
06:05PM 33.0239 -84.2989 349° North 485 558 34,000  Level Atlanta Center
06:06PM 33.1553 -84.3292 349° North 485 558 34,000  Level Atlanta Center
06:07PM 33.2928 -84.3594 350° North 490 564 34,000  Level Atlanta Center
06:08PM 33.4158 -84.3897 348° North 495 570 34,000  Level Atlanta Center
06:09PM 33.5536 -84.4203 350° North 495 570 34,000  Level Atlanta Center
06:10PM 33.6956 -84.4233 359° North 495 570 34,000  Level Atlanta Center
06:11PM 33.8397 -84.3914 10° North 506 582 34,000  Level Atlanta Center
06:12PM 33.9797 -84.3569 12° North 516 594 34,000  Level Atlanta Center
06:13PM 34.1383 -84.3175 12° North 522 601 34,000  Level Atlanta Center
06:14PM 34.2803 -84.2850 11° North 527 606 34,000  Level Atlanta Center
06:15PM 34.4036 -84.2553 11° North 520 598 34,000  Level Atlanta Center
06:16PM 34.5433 -84.2228 11° North 514 592 34,000  Level Atlanta Center
06:17PM 34.6958 -84.1903 10° North 509 586 34,000  Level Atlanta Center
06:18PM 34.8378 -84.1553 11° North 511 588 34,000  Level Atlanta Center
06:19PM 34.9797 -84.1200 12° North 511 588 34,000  Level Atlanta Center
06:20PM 35.1217 -84.0869 11° North 511 588 34,000  Level Atlanta Center
06:21PM 35.2656 -84.0514 11° North 517 595 34,000  Level Atlanta Center
06:22PM 35.4094 -84.0183 11° North 523 602 34,000  Level Atlanta Center
06:23PM 35.5533 -83.9800 12° North 523 602 34,000  Level Atlanta Center
06:24PM 35.6994 -83.9467 10° North 523 602 34,000  Level Atlanta Center
06:25PM 35.8414 -83.9106 12° North 523 602 34,000  Level Atlanta Center
06:26PM 35.9853 -83.8822 North 523 602 34,000  Level Atlanta Center
06:27PM 36.1269 -83.8589 North 523 602 34,000  Level Atlanta Center
06:29PM 36.4636 -83.7983 North 512 589 34,000 -60 Level Indianapolis Center
06:31PM 36.6314 -83.7580 North  Level FlightAware Approximate
06:31PM 36.7619 -83.7467 North 506 582 33,900  Level Indianapolis Center
06:32PM 36.9003 -83.7222 North 501 577 32,900 -1,020 Descending Indianapolis Center
06:33PM 37.0361 -83.6969 North 495 570 31,900 -960 Descending Indianapolis Center
06:34PM 37.1725 -83.6719 North 493 567 31,000 -960 Descending Indianapolis Center
06:35PM 37.3114 -83.6467 North 498 573 30,000 -1,500 Descending Indianapolis Center
06:36PM 37.4736 -83.6183 North 504 580 28,000 -2,700 Descending Indianapolis Center
06:37PM 37.6119 -83.5956 North 502 578 24,500 -2,160 Descending Indianapolis Center
06:38PM 37.7425 -83.6608 338° Northwest 514 592 23,600 -900 Descending Indianapolis Center
06:39PM 37.8658 -83.7481 331° Northwest 510 587 22,700 -780 Descending Indianapolis Center
06:41PM 37.9867 -83.8339 331° Northwest 500 575 22,000 -1,500 Descending Indianapolis Center
06:42PM 38.1050 -83.9203 330° Northwest 494 568 19,600 -3,000 Descending Indianapolis Center
06:43PM 38.2364 -84.0097 332° Northwest 464 534 15,900 -3,240 Descending Indianapolis Center
06:44PM 38.3419 -84.0875 330° Northwest 440 506 13,000 -2,400 Descending Indianapolis Center
06:45PM 38.4458 -84.1619 331° Northwest 428 493 11,000 -1,020 Descending Indianapolis Center
06:46PM 38.5450 -84.2356 330° Northwest 412 474 11,000  Level Indianapolis Center
06:47PM 38.6294 -84.2944 331° Northwest 347 399 11,000 -60 Level Indianapolis Center
06:48PM 38.6953 -84.3794 315° West 318 366 10,900 -60 Descending Indianapolis Center
06:49PM 38.7531 -84.4658 311° West 317 365 10,900 -240 Level Indianapolis Center
06:50PM 38.8114 -84.5525 311° West 318 366 10,500 -900 Descending Indianapolis Center
06:51PM 38.9000 -84.5667 353° North 307 353 9,300 -1,080 Descending Cincinnati TRACON
06:52PM 38.9833 -84.5500 North 297 342 8,500 -1,020 Descending Cincinnati TRACON
06:53PM 39.0833 -84.5500 360° North 305 351 7,200 -1,260 Descending Cincinnati TRACON
06:54PM 39.1647 -84.5553 357° North 298 343 5,800 -960 Descending Indianapolis Center
06:55PM 39.2419 -84.5608 357° North 282 325 5,100 -480 Descending Indianapolis Center
06:56PM 39.3119 -84.5686 355° North 260 299 4,900 -120 Descending Indianapolis Center
06:57PM 39.3314 -84.6375 290° West 241 277 4,900 60 Level Indianapolis Center
06:58PM 39.3000 -84.6667 216° Southwest 189 217 5,000 -300 Climbing Cincinnati TRACON
06:59PM 39.2500 -84.6667 180° South 164 189 4,400 -720 Descending Cincinnati TRACON
07:00PM 39.2000 -84.6667 180° South 159 183 3,500 -900 Descending Cincinnati TRACON
07:02PM 39.1167 -84.6667 180° South 159 183 1,900 -840 Descending Cincinnati TRACON
07:03PM 39.0667 -84.6667 180° South 156 180 1,100 -840 Descending Cincinnati TRACON